Time;durP1;ratioP1;P1;durP2;ratioP2;P2;SDS_P1;SDS_P2;PMS_P1;PMS_P2;Temp;Humidity;BMP_temperature;BMP_pressure;BME280_temperature;BME280_humidity;BME280_pressure;Samples;Min_cycle;Max_cycle;Signal;HPM_P1;HPM_P2
2022/07/11 00:01:36;;;;;;;2.47;1.73;;;21.80;99.90;;;;;;4996160;28;20030;-71
2022/07/11 00:04:01;;;;;;;1.70;1.40;;;21.80;99.90;;;;;;4993931;28;20039;-71
2022/07/11 00:06:27;;;;;;;1.95;1.67;;;21.80;99.90;;;;;;4992453;28;20466;-70
2022/07/11 00:08:53;;;;;;;2.55;1.70;;;21.80;99.90;;;;;;4993533;28;20034;-71
2022/07/11 00:11:18;;;;;;;4.40;1.80;;;21.70;99.90;;;;;;4994965;28;20026;-71
2022/07/11 00:13:44;;;;;;;2.15;1.70;;;21.70;99.90;;;;;;4993819;28;20026;-71
2022/07/11 00:16:10;;;;;;;1.75;1.65;;;21.70;99.90;;;;;;4993394;28;20030;-71
2022/07/11 00:18:35;;;;;;;1.40;1.30;;;21.60;99.90;;;;;;4993729;28;20497;-71
2022/07/11 00:21:01;;;;;;;3.40;1.35;;;21.60;99.90;;;;;;4993380;28;20389;-71
2022/07/11 00:23:27;;;;;;;3.47;1.40;;;21.60;99.90;;;;;;4993603;28;20117;-71
2022/07/11 00:25:53;;;;;;;1.70;1.30;;;21.60;99.90;;;;;;4993021;28;20022;-71
2022/07/11 00:28:18;;;;;;;2.72;1.58;;;21.50;99.90;;;;;;4993922;28;20023;-71
2022/07/11 00:30:45;;;;;;;2.13;1.55;;;21.50;99.90;;;;;;4995622;28;20037;-71
2022/07/11 00:33:10;;;;;;;1.67;1.58;;;21.50;99.90;;;;;;4992607;28;20045;-71
2022/07/11 00:35:36;;;;;;;3.78;1.70;;;21.50;99.90;;;;;;4991632;28;20489;-72
2022/07/11 00:38:02;;;;;;;2.45;1.60;;;21.50;99.90;;;;;;4992162;28;20031;-72
2022/07/11 00:40:28;;;;;;;1.85;1.48;;;21.50;99.90;;;;;;4993685;28;20085;-71
2022/07/11 00:42:54;;;;;;;2.30;1.67;;;21.50;99.90;;;;;;4995120;28;20398;-71
2022/07/11 00:45:19;;;;;;;1.48;1.33;;;21.40;99.90;;;;;;4992601;28;20030;-71
2022/07/11 00:47:46;;;;;;;2.22;1.70;;;21.40;99.90;;;;;;4992177;28;20081;-70
2022/07/11 00:50:12;;;;;;;2.70;1.70;;;21.40;99.90;;;;;;4992576;28;20034;-71
2022/07/11 00:52:37;;;;;;;1.80;1.48;;;21.40;99.90;;;;;;4991932;28;20029;-71
2022/07/11 00:55:06;;;;;;;2.47;1.70;;;21.40;99.90;;;;;;4991327;28;20030;-71
2022/07/11 00:57:33;;;;;;;1.60;1.45;;;21.40;99.90;;;;;;4993272;28;20022;-70
2022/07/11 00:59:59;;;;;;;2.88;1.40;;;21.40;99.90;;;;;;4992438;28;20081;-71
2022/07/11 01:02:25;;;;;;;3.28;1.75;;;21.40;99.90;;;;;;4995318;28;20046;-71
2022/07/11 01:04:52;;;;;;;4.40;1.92;;;21.40;99.90;;;;;;4992489;28;20527;-71
2022/07/11 01:07:17;;;;;;;2.45;1.60;;;21.40;99.90;;;;;;4991718;28;20066;-71
2022/07/11 01:09:43;;;;;;;2.03;1.70;;;21.40;99.90;;;;;;4992526;28;20468;-71
2022/07/11 01:12:09;;;;;;;1.75;1.50;;;21.40;99.90;;;;;;4994114;28;20030;-71
2022/07/11 01:14:35;;;;;;;1.73;1.60;;;21.40;99.90;;;;;;4992473;28;20033;-71
2022/07/11 01:17:00;;;;;;;1.55;1.40;;;21.40;99.90;;;;;;4992392;28;20022;-71
2022/07/11 01:19:26;;;;;;;2.08;1.60;;;21.40;99.90;;;;;;4992423;28;20469;-71
2022/07/11 01:21:55;;;;;;;1.83;1.42;;;21.40;99.90;;;;;;4992164;28;20027;-71
2022/07/11 01:24:21;;;;;;;2.38;1.48;;;21.50;99.90;;;;;;4979291;28;20395;-71
2022/07/11 01:26:48;;;;;;;1.52;1.42;;;21.50;99.90;;;;;;4992517;28;20034;-71
2022/07/11 01:29:14;;;;;;;1.90;1.60;;;21.50;99.90;;;;;;4992209;28;20026;-71
2022/07/11 01:31:44;;;;;;;1.27;1.17;;;21.50;99.90;;;;;;4994659;28;20023;-72
2022/07/11 01:34:11;;;;;;;2.78;1.88;;;21.50;99.90;;;;;;4992176;28;20110;-71
2022/07/11 01:36:36;;;;;;;1.50;1.40;;;21.50;99.90;;;;;;4991985;28;20026;-71
2022/07/11 01:39:03;;;;;;;3.63;1.80;;;21.50;99.90;;;;;;4992008;28;20037;-71
2022/07/11 01:41:29;;;;;;;2.55;1.50;;;21.50;99.90;;;;;;4993377;28;20033;-71
2022/07/11 01:43:54;;;;;;;2.42;1.60;;;21.50;99.90;;;;;;4992073;28;20031;-71
2022/07/11 01:46:21;;;;;;;1.85;1.67;;;21.50;99.90;;;;;;4991781;28;20031;-71
2022/07/11 01:48:47;;;;;;;2.17;1.42;;;21.50;99.90;;;;;;4991947;28;20027;-72
2022/07/11 01:51:13;;;;;;;1.30;1.20;;;21.50;99.90;;;;;;4991692;28;20045;-71
2022/07/11 01:53:39;;;;;;;1.75;1.65;;;21.40;99.90;;;;;;4991696;28;20477;-72
2022/07/11 01:56:05;;;;;;;1.40;1.30;;;21.40;99.90;;;;;;4990490;28;20027;-72
2022/07/11 01:58:31;;;;;;;3.03;1.80;;;21.30;99.90;;;;;;4990865;28;20026;-72
2022/07/11 02:00:58;;;;;;;2.17;1.40;;;21.30;99.90;;;;;;4989987;28;20572;-71
2022/07/11 02:03:24;;;;;;;2.17;1.60;;;21.30;99.90;;;;;;4991910;28;20512;-71
2022/07/11 02:05:50;;;;;;;1.58;1.25;;;21.30;99.90;;;;;;4990017;28;20034;-72
2022/07/11 02:08:17;;;;;;;1.75;1.60;;;21.30;99.90;;;;;;4991915;28;20022;-72
2022/07/11 02:10:49;;;;;;;1.85;1.20;;;21.30;99.90;;;;;;4993846;28;20065;-71
2022/07/11 02:13:19;;;;;;;3.53;1.70;;;21.30;99.90;;;;;;4981990;28;20081;-72
2022/07/11 02:15:46;;;;;;;2.22;1.52;;;21.40;99.90;;;;;;4989997;28;20031;-72
2022/07/11 02:18:13;;;;;;;3.15;1.70;;;21.40;99.90;;;;;;4991971;28;20026;-72
2022/07/11 02:20:40;;;;;;;4.32;1.70;;;21.30;99.90;;;;;;4989812;28;20130;-71
2022/07/11 02:23:07;;;;;;;1.35;1.25;;;21.40;99.90;;;;;;4991673;28;20113;-71
2022/07/11 02:25:35;;;;;;;2.90;1.30;;;21.40;99.90;;;;;;4991355;28;20088;-72
2022/07/11 02:28:01;;;;;;;1.95;1.73;;;21.40;99.90;;;;;;4990598;28;20027;-71
2022/07/11 02:30:27;;;;;;;7.80;1.70;;;21.40;99.90;;;;;;4991679;28;20080;-71
2022/07/11 02:32:53;;;;;;;2.88;1.60;;;21.40;99.90;;;;;;4993239;28;20054;-71
2022/07/11 02:35:19;;;;;;;1.70;1.23;;;21.40;99.90;;;;;;4989808;28;20484;-71
2022/07/11 02:37:45;;;;;;;4.20;1.50;;;21.50;99.90;;;;;;4991600;28;20045;-71
2022/07/11 02:40:11;;;;;;;2.38;1.45;;;21.50;99.90;;;;;;4990768;28;20389;-72
2022/07/11 02:42:37;;;;;;;1.40;1.30;;;21.40;99.90;;;;;;4993054;28;20033;-71
2022/07/11 02:45:04;;;;;;;7.63;1.55;;;21.50;99.90;;;;;;4989492;28;20026;-71
2022/07/11 02:47:29;;;;;;;4.75;1.77;;;21.50;99.90;;;;;;4991401;28;20045;-71
2022/07/11 02:49:55;;;;;;;1.50;1.20;;;21.50;99.90;;;;;;4989386;28;20386;-71
2022/07/11 02:52:21;;;;;;;1.40;1.30;;;21.50;99.90;;;;;;4991308;28;20031;-71
2022/07/11 02:54:46;;;;;;;1.40;1.30;;;21.50;99.90;;;;;;4991074;28;20037;-71
2022/07/11 02:57:12;;;;;;;2.88;1.45;;;21.40;99.90;;;;;;4991387;28;20030;-71
2022/07/11 02:59:38;;;;;;;1.40;1.30;;;21.40;99.90;;;;;;4989867;28;20501;-71
2022/07/11 03:02:04;;;;;;;3.42;1.30;;;21.40;99.90;;;;;;4993466;28;20133;-71
2022/07/11 03:04:34;;;;;;;3.40;1.30;;;21.40;99.90;;;;;;4989743;28;20034;-71
2022/07/11 03:07:00;;;;;;;2.92;1.58;;;21.40;99.90;;;;;;4990899;28;20077;-71
2022/07/11 03:09:27;;;;;;;3.08;1.48;;;21.40;99.90;;;;;;4991066;28;20034;-71
2022/07/11 03:11:52;;;;;;;3.40;1.40;;;21.30;99.90;;;;;;4993555;28;20077;-71
2022/07/11 03:14:19;;;;;;;4.07;1.33;;;21.30;99.90;;;;;;4989781;28;20034;-71
2022/07/11 03:16:44;;;;;;;2.25;1.63;;;21.30;99.90;;;;;;4989864;28;20018;-71
2022/07/11 03:19:10;;;;;;;1.75;1.50;;;21.30;99.90;;;;;;4990836;28;20018;-71
2022/07/11 03:21:36;;;;;;;2.50;1.63;;;21.30;99.90;;;;;;4990944;28;20556;-71
2022/07/11 03:24:02;;;;;;;2.65;1.50;;;21.20;99.90;;;;;;4989905;28;20031;-71
2022/07/11 03:26:28;;;;;;;1.40;1.30;;;21.20;99.90;;;;;;4993427;28;20410;-71
2022/07/11 03:28:54;;;;;;;6.10;1.40;;;21.10;99.90;;;;;;4994389;28;20030;-71
2022/07/11 03:31:20;;;;;;;1.73;1.20;;;21.10;99.90;;;;;;4996985;28;20168;-71
2022/07/11 03:33:45;;;;;;;1.33;1.05;;;21.00;99.90;;;;;;4994602;28;20031;-71
2022/07/11 03:36:11;;;;;;;1.35;1.25;;;21.00;99.90;;;;;;4994139;28;20034;-71
2022/07/11 03:38:38;;;;;;;3.22;1.75;;;20.90;99.90;;;;;;4992909;28;20034;-71
2022/07/11 03:41:04;;;;;;;3.97;1.35;;;20.90;99.90;;;;;;4996491;28;20081;-72
2022/07/11 03:43:30;;;;;;;3.40;1.50;;;20.80;99.90;;;;;;4993686;28;20037;-72
2022/07/11 03:45:56;;;;;;;3.33;1.50;;;20.80;99.90;;;;;;4993958;28;20038;-72
2022/07/11 03:48:22;;;;;;;2.65;1.40;;;20.80;99.90;;;;;;4994546;28;20069;-72
2022/07/11 03:50:48;;;;;;;1.67;1.30;;;20.80;99.90;;;;;;4994400;28;20030;-71
2022/07/11 03:53:15;;;;;;;2.55;1.38;;;20.80;99.90;;;;;;4984479;28;20053;-72
2022/07/11 03:55:41;;;;;;;1.50;1.40;;;20.70;99.90;;;;;;4993643;28;20441;-72
2022/07/11 03:58:06;;;;;;;1.48;1.38;;;20.70;99.90;;;;;;4984907;28;20022;-72
2022/07/11 04:00:32;;;;;;;2.35;1.60;;;20.70;99.90;;;;;;4993497;28;20041;-71
2022/07/11 04:02:59;;;;;;;1.30;1.20;;;20.70;99.90;;;;;;4995311;28;20054;-72
2022/07/11 04:05:27;;;;;;;1.40;1.30;;;20.70;99.90;;;;;;4993625;28;20117;-71
2022/07/11 04:07:52;;;;;;;2.03;1.50;;;20.80;99.90;;;;;;4992699;28;20037;-71
2022/07/11 04:10:18;;;;;;;3.50;1.50;;;20.80;99.90;;;;;;4993281;28;20034;-71
2022/07/11 04:12:44;;;;;;;2.13;1.40;;;20.80;99.90;;;;;;4996713;28;20029;-71
2022/07/11 04:15:11;;;;;;;3.90;1.55;;;20.80;99.90;;;;;;4992155;28;20031;-71
2022/07/11 04:17:37;;;;;;;2.72;1.10;;;20.80;99.90;;;;;;4992723;28;20034;-71
2022/07/11 04:20:04;;;;;;;3.05;1.40;;;20.80;99.90;;;;;;4992059;28;20026;-71
2022/07/11 04:22:30;;;;;;;1.83;1.20;;;20.80;99.90;;;;;;4993766;28;20018;-71
2022/07/11 04:24:56;;;;;;;1.63;1.30;;;20.80;99.90;;;;;;4992059;28;20062;-71
2022/07/11 04:27:22;;;;;;;2.30;1.42;;;20.80;99.90;;;;;;4992365;28;20524;-71
2022/07/11 04:29:47;;;;;;;1.75;1.33;;;20.70;99.90;;;;;;4993049;28;20070;-71
2022/07/11 04:32:13;;;;;;;2.42;1.10;;;20.80;99.90;;;;;;4995558;28;20037;-71
2022/07/11 04:34:39;;;;;;;1.52;1.10;;;20.80;99.90;;;;;;4993411;28;20105;-71
2022/07/11 04:37:05;;;;;;;5.63;1.45;;;20.80;99.90;;;;;;4992499;28;20023;-70
2022/07/11 04:39:32;;;;;;;1.70;1.38;;;20.90;99.90;;;;;;4993286;28;20037;-71
2022/07/11 04:41:59;;;;;;;2.03;1.15;;;20.80;99.90;;;;;;4995716;28;20362;-71
2022/07/11 04:44:26;;;;;;;3.03;1.13;;;20.80;99.90;;;;;;4993225;28;21044;-73
2022/07/11 04:46:51;;;;;;;1.92;1.20;;;20.90;99.90;;;;;;4993166;28;20037;-71
2022/07/11 04:49:18;;;;;;;4.13;1.05;;;20.90;99.90;;;;;;4992989;28;20038;-72
2022/07/11 04:51:44;;;;;;;0.90;0.90;;;20.80;99.90;;;;;;4991700;28;20062;-72
2022/07/11 04:54:10;;;;;;;2.45;1.23;;;20.80;99.90;;;;;;4992978;28;20058;-72
2022/07/11 04:56:37;;;;;;;1.20;1.10;;;20.90;99.90;;;;;;4991291;28;20065;-71
2022/07/11 04:59:03;;;;;;;3.00;1.30;;;20.80;99.90;;;;;;4991643;28;20030;-71
2022/07/11 05:01:29;;;;;;;3.28;1.40;;;20.80;99.90;;;;;;4993989;28;20018;-71
2022/07/11 05:03:55;;;;;;;2.97;1.20;;;20.80;99.90;;;;;;4992758;28;20053;-72
2022/07/11 05:06:21;;;;;;;2.88;1.45;;;20.80;99.90;;;;;;4992750;28;20070;-72
2022/07/11 05:08:47;;;;;;;1.13;0.93;;;20.80;99.90;;;;;;4992477;28;20556;-72
2022/07/11 05:11:13;;;;;;;3.15;1.30;;;20.80;99.90;;;;;;4995232;28;20053;-72
2022/07/11 05:13:39;;;;;;;2.30;1.50;;;20.80;99.90;;;;;;4992640;28;20073;-71
2022/07/11 05:16:06;;;;;;;1.70;1.20;;;20.90;99.90;;;;;;4992508;28;20054;-72
2022/07/11 05:18:31;;;;;;;2.05;1.20;;;20.90;99.90;;;;;;4992966;28;20026;-71
2022/07/11 05:20:57;;;;;;;2.75;1.23;;;20.90;99.90;;;;;;4991968;28;20397;-71
2022/07/11 05:23:23;;;;;;;3.53;1.38;;;21.00;99.90;;;;;;4992658;28;20034;-72
2022/07/11 05:25:49;;;;;;;4.32;1.10;;;20.90;99.90;;;;;;4991676;28;20041;-71
2022/07/11 05:28:14;;;;;;;1.52;1.10;;;20.90;99.90;;;;;;4992861;28;20033;-72
2022/07/11 05:30:40;;;;;;;2.15;1.23;;;21.00;99.90;;;;;;4994440;28;20065;-71
2022/07/11 05:33:06;;;;;;;2.65;1.00;;;20.90;99.90;;;;;;4993950;28;20053;-71
2022/07/11 05:35:32;;;;;;;2.03;0.98;;;20.90;99.90;;;;;;4992033;28;20073;-72
2022/07/11 05:37:57;;;;;;;2.50;1.40;;;20.90;99.90;;;;;;4992394;28;20034;-71
2022/07/11 05:40:23;;;;;;;3.90;1.38;;;21.00;99.90;;;;;;4991603;28;20080;-72
2022/07/11 05:42:49;;;;;;;6.05;1.50;;;20.90;99.90;;;;;;4994800;28;20033;-71
2022/07/11 05:45:14;;;;;;;2.28;0.98;;;21.00;99.90;;;;;;4991697;28;20117;-72
2022/07/11 05:47:40;;;;;;;3.05;1.23;;;21.00;99.90;;;;;;4992379;28;20093;-72
2022/07/11 05:50:06;;;;;;;3.00;1.08;;;21.00;99.90;;;;;;4991536;28;20382;-72
2022/07/11 05:52:32;;;;;;;3.30;1.20;;;21.00;99.90;;;;;;4990899;28;20026;-71
2022/07/11 05:54:58;;;;;;;1.90;1.05;;;21.00;99.90;;;;;;4991271;28;20092;-71
2022/07/11 05:57:24;;;;;;;1.80;1.10;;;21.10;99.90;;;;;;4992254;28;20347;-72
2022/07/11 05:59:50;;;;;;;1.10;1.00;;;21.10;99.90;;;;;;4991572;28;20058;-71
2022/07/11 06:02:16;;;;;;;1.42;1.08;;;21.10;99.90;;;;;;4994591;28;20065;-72
2022/07/11 06:04:44;;;;;;;1.67;0.93;;;21.10;99.90;;;;;;4990459;28;20026;-72
2022/07/11 06:07:10;;;;;;;2.13;1.10;;;21.20;99.90;;;;;;4991618;28;20076;-72
2022/07/11 06:09:36;;;;;;;2.38;1.10;;;21.20;99.60;;;;;;4990002;28;20038;-72
2022/07/11 06:12:02;;;;;;;7.75;1.33;;;21.20;99.90;;;;;;4992965;28;20389;-72
2022/07/11 06:14:28;;;;;;;2.08;1.27;;;21.20;99.70;;;;;;4991637;28;20057;-72
2022/07/11 06:16:53;;;;;;;6.45;1.20;;;21.20;99.80;;;;;;4991642;28;20053;-71
2022/07/11 06:19:19;;;;;;;2.65;1.10;;;21.20;99.50;;;;;;4991541;28;20085;-72
2022/07/11 06:21:45;;;;;;;2.20;1.30;;;21.30;99.70;;;;;;4990093;28;20029;-71
2022/07/11 06:24:11;;;;;;;3.65;1.30;;;21.30;99.40;;;;;;4991211;28;20088;-74
2022/07/11 06:26:36;;;;;;;3.72;1.13;;;21.40;99.10;;;;;;4991246;28;20014;-73
2022/07/11 06:29:03;;;;;;;3.78;1.00;;;21.50;99.30;;;;;;4991360;28;20643;-72
2022/07/11 06:31:28;;;;;;;3.15;0.95;;;21.60;99.50;;;;;;4992694;28;20026;-72
2022/07/11 06:33:54;;;;;;;1.65;1.10;;;21.80;98.70;;;;;;4991347;28;20042;-73
2022/07/11 06:36:26;;;;;;;4.32;1.30;;;21.90;98.40;;;;;;4989905;28;20049;-73
2022/07/11 06:38:53;;;;;;;1.75;0.60;;;22.00;97.90;;;;;;4991063;28;20026;-71
2022/07/11 06:41:19;;;;;;;8.00;1.13;;;22.20;97.90;;;;;;4993963;28;20562;-72
2022/07/11 06:43:47;;;;;;;2.05;0.90;;;22.40;97.60;;;;;;4990152;28;20030;-72
2022/07/11 06:46:15;;;;;;;0.98;0.90;;;22.50;97.40;;;;;;4991088;28;20014;-73
2022/07/11 06:48:42;;;;;;;1.58;0.73;;;22.80;97.00;;;;;;4991081;28;20478;-74
2022/07/11 06:51:09;;;;;;;1.73;1.02;;;23.10;96.20;;;;;;4989971;28;20482;-71
2022/07/11 06:53:34;;;;;;;4.07;1.00;;;23.40;95.80;;;;;;4991243;28;20072;-70
2022/07/11 06:56:00;;;;;;;8.50;1.23;;;23.60;95.00;;;;;;4990906;28;20497;-71
2022/07/11 06:58:31;;;;;;;1.55;0.90;;;23.90;94.90;;;;;;4990556;28;20030;-71
2022/07/11 07:01:02;;;;;;;8.40;1.13;;;24.20;94.40;;;;;;4996663;28;20030;-71
2022/07/11 07:03:29;;;;;;;2.22;0.93;;;24.50;93.50;;;;;;4993694;28;20053;-71
2022/07/11 07:05:58;;;;;;;6.45;1.30;;;24.80;93.30;;;;;;4993258;28;20026;-71
2022/07/11 07:08:25;;;;;;;9.35;1.23;;;25.00;92.30;;;;;;4995146;28;20027;-71
2022/07/11 07:10:52;;;;;;;3.10;0.90;;;25.20;91.80;;;;;;4996882;28;20034;-71
2022/07/11 07:13:19;;;;;;;0.82;0.80;;;25.30;91.80;;;;;;4994139;28;20161;-71
2022/07/11 07:15:45;;;;;;;2.08;1.20;;;25.40;90.90;;;;;;4994500;28;20041;-71
2022/07/11 07:18:11;;;;;;;2.85;0.95;;;25.50;91.20;;;;;;4993763;28;20026;-71
2022/07/11 07:20:37;;;;;;;3.42;0.80;;;25.40;90.50;;;;;;4992977;28;20073;-71
2022/07/11 07:23:03;;;;;;;3.53;1.02;;;25.40;90.70;;;;;;4995046;28;20137;-72
2022/07/11 07:25:28;;;;;;;2.25;0.90;;;25.50;90.20;;;;;;4994279;28;20038;-73
2022/07/11 07:27:54;;;;;;;4.32;1.10;;;25.40;90.40;;;;;;4995030;28;20030;-72
2022/07/11 07:30:20;;;;;;;6.07;1.05;;;25.40;90.50;;;;;;4992602;28;20724;-71
2022/07/11 07:32:45;;;;;;;2.55;0.82;;;25.50;90.60;;;;;;4997390;28;20030;-71
2022/07/11 07:35:11;;;;;;;3.40;0.80;;;25.60;90.50;;;;;;4992976;28;20105;-70
2022/07/11 07:37:37;;;;;;;2.30;1.30;;;25.70;90.40;;;;;;4994706;28;20022;-72
2022/07/11 07:40:03;;;;;;;3.28;0.88;;;25.80;90.40;;;;;;4993785;28;20076;-71
2022/07/11 07:42:29;;;;;;;5.75;0.90;;;26.00;90.20;;;;;;4997247;28;20018;-71
2022/07/11 07:44:54;;;;;;;2.85;0.88;;;26.00;89.80;;;;;;4993895;28;20496;-71
2022/07/11 07:47:20;;;;;;;4.20;0.73;;;26.00;89.50;;;;;;4994492;28;20023;-71
2022/07/11 07:49:46;;;;;;;1.63;0.75;;;26.00;89.30;;;;;;4993849;28;20042;-71
2022/07/11 07:52:11;;;;;;;1.92;0.90;;;25.80;89.80;;;;;;4991586;28;20628;-71
2022/07/11 07:54:37;;;;;;;4.00;0.77;;;25.70;90.00;;;;;;4992971;28;20099;-71
2022/07/11 07:57:03;;;;;;;0.88;0.88;;;25.60;90.10;;;;;;4989182;28;20097;-72
2022/07/11 07:59:29;;;;;;;5.30;0.98;;;25.40;90.30;;;;;;4993501;28;20535;-73
2022/07/11 08:01:55;;;;;;;3.08;0.95;;;25.60;90.60;;;;;;4994444;28;20039;-73
2022/07/11 08:04:21;;;;;;;4.97;1.10;;;25.70;90.50;;;;;;4993523;28;20495;-73
2022/07/11 08:06:46;;;;;;;1.60;0.85;;;26.00;90.10;;;;;;4994005;28;20033;-73
2022/07/11 08:09:12;;;;;;;2.28;1.00;;;26.20;89.80;;;;;;4993208;28;20173;-73
2022/07/11 08:11:38;;;;;;;4.07;0.90;;;26.50;89.50;;;;;;4995532;28;20027;-72
2022/07/11 08:14:07;;;;;;;2.80;1.00;;;26.60;88.70;;;;;;4992008;28;20026;-72
2022/07/11 08:16:33;;;;;;;4.00;1.10;;;26.80;88.30;;;;;;4989724;28;20149;-72
2022/07/11 08:19:00;;;;;;;1.13;0.85;;;27.00;87.90;;;;;;4991726;28;20105;-72
2022/07/11 08:21:27;;;;;;;1.30;0.70;;;27.20;87.60;;;;;;4992900;28;20038;-72
2022/07/11 08:23:54;;;;;;;1.23;0.90;;;27.20;86.70;;;;;;4993341;28;20481;-72
2022/07/11 08:26:20;;;;;;;2.13;0.90;;;27.30;86.70;;;;;;4993575;28;20026;-72
2022/07/11 08:28:46;;;;;;;10.52;1.52;;;27.40;87.20;;;;;;4992271;28;20504;-72
2022/07/11 08:31:12;;;;;;;3.10;0.70;;;27.60;86.80;;;;;;4990488;28;20084;-72
2022/07/11 08:33:37;;;;;;;4.72;1.02;;;27.70;85.90;;;;;;4993136;28;20030;-72
2022/07/11 08:36:03;;;;;;;1.85;0.90;;;27.80;86.20;;;;;;4991960;28;20023;-71
2022/07/11 08:38:29;;;;;;;1.35;0.80;;;27.90;85.80;;;;;;4992403;28;20108;-71
2022/07/11 08:40:55;;;;;;;4.10;0.93;;;27.80;85.40;;;;;;4995534;28;20512;-73
2022/07/11 08:43:31;;;;;;;1.35;1.00;;;27.80;85.00;;;;;;4993375;28;20026;-71
2022/07/11 08:45:57;;;;;;;1.65;0.77;;;27.90;85.50;;;;;;4992415;28;20061;-72
2022/07/11 08:48:24;;;;;;;1.80;0.93;;;28.00;85.30;;;;;;4993706;28;20034;-72
2022/07/11 08:50:50;;;;;;;5.20;0.85;;;28.20;84.90;;;;;;4991368;28;20065;-72
2022/07/11 08:53:16;;;;;;;1.73;0.95;;;28.20;84.60;;;;;;4993605;28;20473;-73
2022/07/11 08:55:42;;;;;;;2.13;1.10;;;28.20;83.90;;;;;;4992622;28;20030;-72
2022/07/11 08:58:09;;;;;;;2.75;1.10;;;28.40;84.90;;;;;;4993349;28;20022;-72
2022/07/11 09:00:36;;;;;;;6.47;1.17;;;28.40;84.10;;;;;;4993080;28;20033;-72
2022/07/11 09:03:03;;;;;;;4.15;1.02;;;28.50;84.70;;;;;;4992415;28;20213;-71
2022/07/11 09:05:30;;;;;;;2.92;1.02;;;28.50;83.40;;;;;;4992596;28;20046;-72
2022/07/11 09:07:56;;;;;;;4.55;0.90;;;28.50;83.50;;;;;;4991901;28;20081;-72
2022/07/11 09:10:22;;;;;;;1.48;0.82;;;28.60;83.10;;;;;;4992469;28;20486;-72
2022/07/11 09:13:07;;;;;;;3.20;1.15;;;28.70;83.00;;;;;;4995498;28;20022;-72
2022/07/11 09:15:34;;;;;;;3.10;1.13;;;28.90;83.60;;;;;;4992527;28;20030;-71
2022/07/11 09:18:00;;;;;;;9.30;1.40;;;29.10;83.90;;;;;;4992972;28;20022;-73
2022/07/11 09:25:19;;;;;;;7.53;1.27;;;29.20;82.80;;;;;;4991033;28;20031;-71
2022/07/11 09:26:05;;;;;;;7.13;1.00;;;29.40;81.40;;;;;;4992181;28;20029;-71
2022/07/11 09:28:31;;;;;;;1.38;1.00;;;29.50;81.00;;;;;;4992893;28;20072;-71
2022/07/11 09:30:56;;;;;;;2.08;1.08;;;29.70;81.20;;;;;;4994682;28;20113;-72
2022/07/11 09:33:22;;;;;;;1.55;1.02;;;29.60;79.30;;;;;;4991702;28;20033;-70
2022/07/11 09:35:49;;;;;;;1.58;1.00;;;29.40;79.50;;;;;;4992275;28;20034;-70
2022/07/11 09:38:16;;;;;;;2.92;1.23;;;29.30;80.00;;;;;;4996271;28;20070;-70
2022/07/11 09:40:47;;;;;;;3.55;1.00;;;29.10;78.80;;;;;;4992356;28;20030;-71
2022/07/11 09:43:13;;;;;;;1.52;1.00;;;29.10;79.80;;;;;;4992734;28;20018;-71
2022/07/11 09:45:41;;;;;;;2.85;1.20;;;29.20;80.40;;;;;;4992054;28;20022;-71
2022/07/11 09:48:13;;;;;;;2.17;1.25;;;29.00;78.60;;;;;;4992874;28;20432;-71
2022/07/11 09:50:53;;;;;;;0.98;0.90;;;29.00;80.90;;;;;;4991572;28;20042;-71
2022/07/11 09:53:20;;;;;;;3.10;1.40;;;29.00;78.60;;;;;;4984599;28;20026;-72
2022/07/11 09:55:46;;;;;;;1.30;1.15;;;29.00;79.90;;;;;;4991581;28;20076;-71
2022/07/11 09:58:15;;;;;;;1.58;1.27;;;29.10;80.70;;;;;;4992291;28;20105;-72
2022/07/11 10:00:43;;;;;;;1.10;1.02;;;29.30;80.70;;;;;;4992715;28;20038;-71
2022/07/11 10:03:10;;;;;;;1.80;0.95;;;29.60;80.60;;;;;;4990338;28;20458;-71
2022/07/11 10:05:37;;;;;;;3.15;0.93;;;29.90;78.60;;;;;;4990200;28;20567;-72
2022/07/11 10:08:04;;;;;;;2.50;1.00;;;30.20;79.30;;;;;;4992128;28;20477;-71
2022/07/11 10:10:32;;;;;;;3.85;0.80;;;30.50;77.70;;;;;;4992139;28;20042;-71
2022/07/11 10:12:58;;;;;;;2.53;1.00;;;30.80;78.20;;;;;;4993197;28;20036;-72
2022/07/11 10:15:35;;;;;;;5.13;1.33;;;31.00;77.10;;;;;;4991166;28;20100;-72
2022/07/11 10:18:24;;;;;;;1.58;1.10;;;31.00;76.30;;;;;;4992094;28;20474;-71
2022/07/11 10:21:00;;;;;;;2.03;1.25;;;30.70;76.50;;;;;;4990005;28;20053;-72
2022/07/11 10:23:40;;;;;;;4.97;1.30;;;30.10;78.20;;;;;;4992041;28;20117;-72
2022/07/11 10:26:42;;;;;;;5.57;1.10;;;29.60;79.70;;;;;;4991091;28;20536;-72
2022/07/11 10:29:25;;;;;;;3.70;1.20;;;29.10;78.90;;;;;;4990934;28;20045;-72
2022/07/11 10:32:05;;;;;;;2.33;1.30;;;28.70;79.40;;;;;;4993965;28;20649;-72
2022/07/11 10:34:30;;;;;;;3.55;1.27;;;28.40;79.70;;;;;;4979159;28;20037;-73
2022/07/11 10:37:04;;;;;;;0.93;0.93;;;28.20;80.80;;;;;;4991202;28;20473;-71
2022/07/11 10:39:37;;;;;;;3.30;1.30;;;27.90;81.30;;;;;;4989839;28;20465;-72
2022/07/11 10:42:05;;;;;;;3.20;1.60;;;27.90;81.90;;;;;;4993741;28;20018;-73
2022/07/11 10:44:54;;;;;;;2.58;1.50;;;27.80;83.00;;;;;;4990004;28;20030;-73
2022/07/11 10:47:44;;;;;;;2.78;1.48;;;27.90;83.20;;;;;;4990680;28;20025;-71
2022/07/11 10:50:38;;;;;;;4.97;1.35;;;28.10;83.50;;;;;;4989406;28;20041;-70
2022/07/11 10:53:09;;;;;;;5.20;1.20;;;28.10;81.30;;;;;;4991228;28;20026;-70
2022/07/11 10:55:40;;;;;;;2.38;1.38;;;28.30;79.80;;;;;;4990702;28;20053;-71
2022/07/11 10:58:21;;;;;;;1.98;1.48;;;28.50;82.70;;;;;;4991671;28;20557;-73
2022/07/11 11:01:06;;;;;;;2.67;1.00;;;28.00;81.50;;;;;;4993396;28;20050;-71
2022/07/11 11:03:32;;;;;;;1.52;1.20;;;27.50;82.30;;;;;;4985253;28;20046;-73
2022/07/11 11:05:58;;;;;;;2.85;1.13;;;27.40;83.90;;;;;;4989354;28;20125;-71
2022/07/11 11:08:40;;;;;;;4.15;1.45;;;27.40;85.80;;;;;;4991316;28;20045;-72
2022/07/11 11:11:21;;;;;;;1.98;1.10;;;27.50;85.00;;;;;;4992161;28;20042;-72
2022/07/11 11:14:20;;;;;;;4.50;1.15;;;27.60;85.50;;;;;;4991069;28;20022;-71
2022/07/11 11:16:46;;;;;;;6.78;1.38;;;27.20;84.00;;;;;;4988682;28;20033;-73
2022/07/11 11:19:46;;;;;;;4.28;1.40;;;27.20;85.00;;;;;;4991076;28;20406;-72
2022/07/11 11:22:13;;;;;;;2.90;1.20;;;27.30;86.20;;;;;;4989874;28;20034;-73
2022/07/11 11:24:38;;;;;;;1.40;1.30;;;27.10;85.90;;;;;;4990721;28;20113;-72
2022/07/11 11:27:04;;;;;;;3.63;1.92;;;27.00;86.60;;;;;;4990637;28;20459;-72
2022/07/11 11:29:30;;;;;;;3.38;1.75;;;27.00;88.60;;;;;;4990913;28;20641;-72
2022/07/11 11:31:58;;;;;;;3.33;1.60;;;27.00;86.80;;;;;;4993398;28;20436;-72
2022/07/11 11:34:24;;;;;;;4.72;1.85;;;26.90;88.30;;;;;;4990794;28;20018;-73
2022/07/11 11:36:58;;;;;;;3.78;1.40;;;26.80;88.70;;;;;;4990932;28;20174;-72
2022/07/11 11:39:32;;;;;;;2.13;1.40;;;26.90;88.90;;;;;;4976606;28;20113;-73
2022/07/11 11:42:09;;;;;;;2.30;1.38;;;26.90;88.70;;;;;;4992272;28;20026;-74
2022/07/11 11:44:49;;;;;;;5.95;1.30;;;27.00;87.60;;;;;;4990917;28;20028;-71
2022/07/11 11:47:15;;;;;;;2.20;1.10;;;27.00;87.30;;;;;;4994218;28;20030;-74
2022/07/11 11:49:45;;;;;;;1.50;1.17;;;26.90;86.50;;;;;;4994144;28;20512;-72
2022/07/11 11:52:12;;;;;;;2.17;1.33;;;27.00;86.50;;;;;;4994186;28;20026;-73
2022/07/11 11:54:39;;;;;;;2.35;1.20;;;27.00;86.60;;;;;;4992952;28;20033;-73
2022/07/11 11:57:12;;;;;;;3.17;1.40;;;27.10;85.90;;;;;;4992018;28;20022;-74
2022/07/11 11:59:39;;;;;;;2.70;1.42;;;27.10;85.00;;;;;;4992729;28;20030;-72
2022/07/11 12:02:05;;;;;;;2.78;1.20;;;27.30;85.80;;;;;;4995882;28;20050;-73
2022/07/11 12:04:33;;;;;;;1.63;1.20;;;27.30;85.10;;;;;;4992679;28;20441;-73
2022/07/11 12:07:01;;;;;;;1.33;1.15;;;27.50;86.40;;;;;;4992485;28;20022;-71
2022/07/11 12:09:46;;;;;;;3.22;1.20;;;27.80;86.40;;;;;;4993696;28;20031;-75
2022/07/11 12:14:57;;;;;;;2.67;1.30;;;29.90;83.60;;;;;;4993464;28;20029;-72
2022/07/11 12:17:29;;;;;;;2.67;1.45;;;31.00;81.00;;;;;;4994044;28;20022;-71
2022/07/11 12:19:55;;;;;;;4.88;1.33;;;32.20;80.40;;;;;;4991930;28;20514;-74
2022/07/11 12:22:20;;;;;;;2.83;1.25;;;32.90;78.50;;;;;;4993778;28;20026;-71
2022/07/11 12:24:48;;;;;;;5.82;1.40;;;33.30;76.00;;;;;;4991824;28;20101;-72
2022/07/11 12:27:25;;;;;;;4.20;1.15;;;33.70;74.10;;;;;;4993318;28;20034;-72
2022/07/11 12:29:51;;;;;;;2.90;1.02;;;34.00;74.80;;;;;;4993353;28;20042;-72
2022/07/11 12:32:19;;;;;;;1.95;1.20;;;33.90;71.50;;;;;;4994961;28;20037;-71
2022/07/11 12:34:46;;;;;;;6.80;1.50;;;34.40;70.40;;;;;;4992178;28;20037;-74
2022/07/11 12:37:16;;;;;;;6.90;1.75;;;34.50;70.70;;;;;;4993323;28;20101;-73
2022/07/11 12:39:51;;;;;;;2.35;1.20;;;35.20;70.20;;;;;;4993153;28;20026;-73
2022/07/11 12:42:28;;;;;;;5.97;1.85;;;35.90;71.60;;;;;;4994668;28;20498;-70
2022/07/11 12:45:07;;;;;;;4.38;1.42;;;36.10;71.00;;;;;;4991553;28;20477;-73
2022/07/11 12:47:35;;;;;;;4.70;1.40;;;36.20;68.90;;;;;;4992605;28;20034;-71
2022/07/11 12:50:15;;;;;;;3.35;1.48;;;36.30;68.50;;;;;;4990261;28;20069;-71
2022/07/11 12:52:45;;;;;;;1.88;1.10;;;36.20;69.40;;;;;;4993185;28;20109;-72
2022/07/11 12:55:19;;;;;;;1.55;1.40;;;36.20;66.50;;;;;;4992698;28;20029;-71
2022/07/11 12:58:03;;;;;;;3.35;1.10;;;36.20;67.70;;;;;;4989455;28;20018;-71